sensor_id;sensor_type;location;lat;lon;timestamp;P1;durP1;ratioP1;P2;durP2;ratioP2
17441;SDS011;8838;50.144;8.176;2023-02-15T00:00:47;166.13;;;21.17;;
17441;SDS011;8838;50.144;8.176;2023-02-15T00:03:15;220.30;;;25.73;;
17441;SDS011;8838;50.144;8.176;2023-02-15T00:05:42;339.03;;;24.77;;
17441;SDS011;8838;50.144;8.176;2023-02-15T00:08:09;321.57;;;24.67;;
17441;SDS011;8838;50.144;8.176;2023-02-15T00:10:36;146.07;;;20.33;;
17441;SDS011;8838;50.144;8.176;2023-02-15T00:13:02;343.57;;;24.57;;
17441;SDS011;8838;50.144;8.176;2023-02-15T00:15:29;140.37;;;19.67;;
17441;SDS011;8838;50.144;8.176;2023-02-15T00:17:57;209.00;;;28.83;;
17441;SDS011;8838;50.144;8.176;2023-02-15T00:20:24;183.53;;;22.03;;
17441;SDS011;8838;50.144;8.176;2023-02-15T00:22:51;239.03;;;24.13;;
17441;SDS011;8838;50.144;8.176;2023-02-15T00:25:18;120.03;;;19.47;;
17441;SDS011;8838;50.144;8.176;2023-02-15T00:27:45;102.47;;;21.07;;
17441;SDS011;8838;50.144;8.176;2023-02-15T00:30:12;272.70;;;23.70;;
17441;SDS011;8838;50.144;8.176;2023-02-15T00:32:39;286.90;;;24.17;;
17441;SDS011;8838;50.144;8.176;2023-02-15T00:35:07;251.37;;;23.70;;
17441;SDS011;8838;50.144;8.176;2023-02-15T00:37:34;116.33;;;19.80;;
17441;SDS011;8838;50.144;8.176;2023-02-15T00:40:01;181.30;;;22.17;;
17441;SDS011;8838;50.144;8.176;2023-02-15T00:42:28;124.27;;;18.77;;
17441;SDS011;8838;50.144;8.176;2023-02-15T00:44:55;172.20;;;20.30;;
17441;SDS011;8838;50.144;8.176;2023-02-15T00:47:22;357.00;;;24.47;;
17441;SDS011;8838;50.144;8.176;2023-02-15T00:49:50;147.60;;;19.00;;
17441;SDS011;8838;50.144;8.176;2023-02-15T00:52:18;150.23;;;19.67;;
17441;SDS011;8838;50.144;8.176;2023-02-15T00:54:45;120.50;;;18.33;;
17441;SDS011;8838;50.144;8.176;2023-02-15T00:57:11;211.07;;;21.13;;
17441;SDS011;8838;50.144;8.176;2023-02-15T00:59:38;90.57;;;19.43;;
17441;SDS011;8838;50.144;8.176;2023-02-15T01:02:05;130.27;;;19.60;;
17441;SDS011;8838;50.144;8.176;2023-02-15T01:04:32;126.53;;;19.60;;
17441;SDS011;8838;50.144;8.176;2023-02-15T01:06:58;225.93;;;22.77;;
17441;SDS011;8838;50.144;8.176;2023-02-15T01:09:28;89.00;;;21.50;;
17441;SDS011;8838;50.144;8.176;2023-02-15T01:11:55;135.43;;;19.47;;
17441;SDS011;8838;50.144;8.176;2023-02-15T01:14:22;53.73;;;17.37;;
17441;SDS011;8838;50.144;8.176;2023-02-15T01:16:48;190.20;;;21.57;;
17441;SDS011;8838;50.144;8.176;2023-02-15T01:19:15;110.57;;;18.20;;
17441;SDS011;8838;50.144;8.176;2023-02-15T01:21:42;100.07;;;15.90;;
17441;SDS011;8838;50.144;8.176;2023-02-15T01:24:11;169.47;;;19.47;;
17441;SDS011;8838;50.144;8.176;2023-02-15T01:26:40;55.20;;;15.73;;
17441;SDS011;8838;50.144;8.176;2023-02-15T01:29:06;45.07;;;15.43;;
17441;SDS011;8838;50.144;8.176;2023-02-15T01:31:36;78.27;;;15.70;;
17441;SDS011;8838;50.144;8.176;2023-02-15T01:34:03;51.47;;;16.73;;
17441;SDS011;8838;50.144;8.176;2023-02-15T01:36:30;43.53;;;15.13;;
17441;SDS011;8838;50.144;8.176;2023-02-15T01:39:00;83.47;;;18.37;;
17441;SDS011;8838;50.144;8.176;2023-02-15T01:41:27;44.37;;;16.63;;
17441;SDS011;8838;50.144;8.176;2023-02-15T01:43:56;57.03;;;16.40;;
17441;SDS011;8838;50.144;8.176;2023-02-15T01:46:26;46.60;;;16.05;;
17441;SDS011;8838;50.144;8.176;2023-02-15T01:48:59;57.50;;;16.87;;
17441;SDS011;8838;50.144;8.176;2023-02-15T01:51:29;64.10;;;16.07;;
17441;SDS011;8838;50.144;8.176;2023-02-15T01:54:01;73.13;;;16.93;;
17441;SDS011;8838;50.144;8.176;2023-02-15T01:56:32;61.80;;;17.57;;
17441;SDS011;8838;50.144;8.176;2023-02-15T01:59:04;148.50;;;17.80;;
17441;SDS011;8838;50.144;8.176;2023-02-15T02:01:35;123.63;;;18.63;;
17441;SDS011;8838;50.144;8.176;2023-02-15T02:04:08;59.10;;;16.00;;
17441;SDS011;8838;50.144;8.176;2023-02-15T02:06:39;103.67;;;17.37;;
17441;SDS011;8838;50.144;8.176;2023-02-15T02:09:06;54.03;;;17.47;;
17441;SDS011;8838;50.144;8.176;2023-02-15T02:11:33;45.77;;;17.63;;
17441;SDS011;8838;50.144;8.176;2023-02-15T02:14:01;98.10;;;18.93;;
17441;SDS011;8838;50.144;8.176;2023-02-15T02:16:30;126.70;;;17.20;;
17441;SDS011;8838;50.144;8.176;2023-02-15T02:19:10;95.37;;;18.43;;
17441;SDS011;8838;50.144;8.176;2023-02-15T02:22:08;110.93;;;18.30;;
17441;SDS011;8838;50.144;8.176;2023-02-15T02:25:11;117.17;;;19.27;;
17441;SDS011;8838;50.144;8.176;2023-02-15T02:27:50;123.37;;;19.93;;
17441;SDS011;8838;50.144;8.176;2023-02-15T02:30:34;49.10;;;17.67;;
17441;SDS011;8838;50.144;8.176;2023-02-15T02:33:15;152.93;;;22.17;;
17441;SDS011;8838;50.144;8.176;2023-02-15T02:35:56;170.77;;;20.90;;
17441;SDS011;8838;50.144;8.176;2023-02-15T02:38:29;88.60;;;17.97;;
17441;SDS011;8838;50.144;8.176;2023-02-15T02:41:07;119.67;;;19.90;;
17441;SDS011;8838;50.144;8.176;2023-02-15T02:43:44;133.83;;;21.47;;
17441;SDS011;8838;50.144;8.176;2023-02-15T02:46:16;111.20;;;21.20;;
17441;SDS011;8838;50.144;8.176;2023-02-15T02:48:48;137.87;;;19.87;;
17441;SDS011;8838;50.144;8.176;2023-02-15T02:51:16;318.80;;;26.07;;
17441;SDS011;8838;50.144;8.176;2023-02-15T02:53:46;205.27;;;22.73;;
17441;SDS011;8838;50.144;8.176;2023-02-15T02:56:18;90.93;;;20.37;;
17441;SDS011;8838;50.144;8.176;2023-02-15T02:58:50;166.77;;;22.50;;
17441;SDS011;8838;50.144;8.176;2023-02-15T03:01:22;247.33;;;24.03;;
17441;SDS011;8838;50.144;8.176;2023-02-15T03:03:55;80.60;;;21.07;;
17441;SDS011;8838;50.144;8.176;2023-02-15T03:06:27;270.40;;;24.33;;
17441;SDS011;8838;50.144;8.176;2023-02-15T03:09:00;140.60;;;21.80;;
17441;SDS011;8838;50.144;8.176;2023-02-15T03:11:32;153.80;;;21.73;;
17441;SDS011;8838;50.144;8.176;2023-02-15T03:13:59;190.27;;;23.00;;
17441;SDS011;8838;50.144;8.176;2023-02-15T03:16:26;228.80;;;22.67;;
17441;SDS011;8838;50.144;8.176;2023-02-15T03:18:55;123.20;;;20.67;;
17441;SDS011;8838;50.144;8.176;2023-02-15T03:21:31;255.53;;;24.60;;
17441;SDS011;8838;50.144;8.176;2023-02-15T03:24:03;302.93;;;25.00;;
17441;SDS011;8838;50.144;8.176;2023-02-15T03:26:34;201.53;;;22.90;;
17441;SDS011;8838;50.144;8.176;2023-02-15T03:29:03;168.00;;;22.17;;
17441;SDS011;8838;50.144;8.176;2023-02-15T03:31:34;95.07;;;21.07;;
17441;SDS011;8838;50.144;8.176;2023-02-15T03:34:06;59.20;;;21.40;;
17441;SDS011;8838;50.144;8.176;2023-02-15T03:36:36;441.23;;;30.00;;
17441;SDS011;8838;50.144;8.176;2023-02-15T03:39:11;333.67;;;26.57;;
17441;SDS011;8838;50.144;8.176;2023-02-15T03:41:44;206.97;;;23.73;;
17441;SDS011;8838;50.144;8.176;2023-02-15T03:44:17;197.57;;;21.37;;
17441;SDS011;8838;50.144;8.176;2023-02-15T03:46:51;281.53;;;25.80;;
17441;SDS011;8838;50.144;8.176;2023-02-15T03:49:26;348.47;;;25.73;;
17441;SDS011;8838;50.144;8.176;2023-02-15T03:51:57;114.77;;;20.80;;
17441;SDS011;8838;50.144;8.176;2023-02-15T03:54:25;165.03;;;21.37;;
17441;SDS011;8838;50.144;8.176;2023-02-15T03:57:10;172.83;;;22.60;;
17441;SDS011;8838;50.144;8.176;2023-02-15T03:59:56;250.10;;;24.90;;
17441;SDS011;8838;50.144;8.176;2023-02-15T04:02:44;244.43;;;24.27;;
17441;SDS011;8838;50.144;8.176;2023-02-15T04:05:20;159.40;;;21.40;;
17441;SDS011;8838;50.144;8.176;2023-02-15T04:07:47;254.90;;;24.33;;
17441;SDS011;8838;50.144;8.176;2023-02-15T04:10:13;436.10;;;29.30;;
17441;SDS011;8838;50.144;8.176;2023-02-15T04:12:54;323.60;;;25.80;;
17441;SDS011;8838;50.144;8.176;2023-02-15T04:15:22;413.13;;;28.47;;
17441;SDS011;8838;50.144;8.176;2023-02-15T04:18:06;692.67;;;39.03;;
17441;SDS011;8838;50.144;8.176;2023-02-15T04:20:35;228.93;;;25.30;;
17441;SDS011;8838;50.144;8.176;2023-02-15T04:23:19;235.80;;;25.07;;
17441;SDS011;8838;50.144;8.176;2023-02-15T04:26:03;215.00;;;24.63;;
17441;SDS011;8838;50.144;8.176;2023-02-15T04:28:30;278.43;;;25.83;;
17441;SDS011;8838;50.144;8.176;2023-02-15T04:30:57;222.80;;;26.57;;
17441;SDS011;8838;50.144;8.176;2023-02-15T04:33:24;335.47;;;27.70;;
17441;SDS011;8838;50.144;8.176;2023-02-15T04:35:52;441.23;;;29.33;;
17441;SDS011;8838;50.144;8.176;2023-02-15T04:38:19;237.80;;;24.63;;
17441;SDS011;8838;50.144;8.176;2023-02-15T04:40:48;343.50;;;28.40;;
17441;SDS011;8838;50.144;8.176;2023-02-15T04:43:16;291.70;;;26.53;;
17441;SDS011;8838;50.144;8.176;2023-02-15T04:45:47;196.87;;;23.87;;
17441;SDS011;8838;50.144;8.176;2023-02-15T04:48:14;464.83;;;28.97;;
17441;SDS011;8838;50.144;8.176;2023-02-15T04:50:41;365.90;;;27.43;;
17441;SDS011;8838;50.144;8.176;2023-02-15T04:53:09;344.93;;;27.10;;
17441;SDS011;8838;50.144;8.176;2023-02-15T04:55:37;505.77;;;33.13;;
17441;SDS011;8838;50.144;8.176;2023-02-15T04:58:03;699.13;;;40.00;;
17441;SDS011;8838;50.144;8.176;2023-02-15T05:00:30;581.60;;;38.83;;
17441;SDS011;8838;50.144;8.176;2023-02-15T05:02:57;462.40;;;31.83;;
17441;SDS011;8838;50.144;8.176;2023-02-15T05:05:24;547.47;;;35.50;;
17441;SDS011;8838;50.144;8.176;2023-02-15T05:07:50;680.00;;;42.50;;
17441;SDS011;8838;50.144;8.176;2023-02-15T05:10:19;601.17;;;34.37;;
17441;SDS011;8838;50.144;8.176;2023-02-15T05:12:46;820.10;;;42.43;;
17441;SDS011;8838;50.144;8.176;2023-02-15T05:15:12;333.17;;;26.67;;
17441;SDS011;8838;50.144;8.176;2023-02-15T05:17:39;514.77;;;35.13;;
17441;SDS011;8838;50.144;8.176;2023-02-15T05:20:06;724.30;;;37.23;;
17441;SDS011;8838;50.144;8.176;2023-02-15T05:22:34;334.93;;;27.57;;
17441;SDS011;8838;50.144;8.176;2023-02-15T05:25:00;496.87;;;32.00;;
17441;SDS011;8838;50.144;8.176;2023-02-15T05:27:46;608.73;;;34.80;;
17441;SDS011;8838;50.144;8.176;2023-02-15T05:30:30;649.77;;;38.10;;
17441;SDS011;8838;50.144;8.176;2023-02-15T05:32:57;1017.13;;;48.70;;
17441;SDS011;8838;50.144;8.176;2023-02-15T05:35:24;607.83;;;36.03;;
17441;SDS011;8838;50.144;8.176;2023-02-15T05:37:51;621.67;;;35.43;;
17441;SDS011;8838;50.144;8.176;2023-02-15T05:40:18;465.80;;;35.30;;
17441;SDS011;8838;50.144;8.176;2023-02-15T05:42:45;579.47;;;33.70;;
17441;SDS011;8838;50.144;8.176;2023-02-15T05:45:13;819.63;;;47.10;;
17441;SDS011;8838;50.144;8.176;2023-02-15T05:47:40;414.63;;;27.03;;
17441;SDS011;8838;50.144;8.176;2023-02-15T05:50:07;465.83;;;33.67;;
17441;SDS011;8838;50.144;8.176;2023-02-15T05:52:35;411.57;;;32.20;;
17441;SDS011;8838;50.144;8.176;2023-02-15T05:55:02;334.97;;;28.00;;
17441;SDS011;8838;50.144;8.176;2023-02-15T05:57:29;414.83;;;31.07;;
17441;SDS011;8838;50.144;8.176;2023-02-15T05:59:57;637.90;;;38.27;;
17441;SDS011;8838;50.144;8.176;2023-02-15T06:02:24;222.27;;;26.43;;
17441;SDS011;8838;50.144;8.176;2023-02-15T06:04:51;505.50;;;30.07;;
17441;SDS011;8838;50.144;8.176;2023-02-15T06:07:18;412.53;;;29.87;;
17441;SDS011;8838;50.144;8.176;2023-02-15T06:09:45;538.67;;;33.53;;
17441;SDS011;8838;50.144;8.176;2023-02-15T06:12:12;375.37;;;29.00;;
17441;SDS011;8838;50.144;8.176;2023-02-15T06:14:38;448.27;;;29.93;;
17441;SDS011;8838;50.144;8.176;2023-02-15T06:17:07;477.73;;;31.87;;
17441;SDS011;8838;50.144;8.176;2023-02-15T06:19:33;384.37;;;30.77;;
17441;SDS011;8838;50.144;8.176;2023-02-15T06:22:00;423.23;;;33.77;;
17441;SDS011;8838;50.144;8.176;2023-02-15T06:24:27;248.60;;;25.73;;
17441;SDS011;8838;50.144;8.176;2023-02-15T06:26:54;413.90;;;30.57;;
17441;SDS011;8838;50.144;8.176;2023-02-15T06:29:21;651.53;;;36.83;;
17441;SDS011;8838;50.144;8.176;2023-02-15T06:31:47;565.13;;;35.60;;
17441;SDS011;8838;50.144;8.176;2023-02-15T06:34:16;587.37;;;35.33;;
17441;SDS011;8838;50.144;8.176;2023-02-15T06:36:42;279.93;;;26.13;;
17441;SDS011;8838;50.144;8.176;2023-02-15T06:39:09;446.03;;;31.73;;
17441;SDS011;8838;50.144;8.176;2023-02-15T06:41:36;186.07;;;28.43;;
17441;SDS011;8838;50.144;8.176;2023-02-15T06:44:03;448.47;;;34.10;;
17441;SDS011;8838;50.144;8.176;2023-02-15T06:46:30;355.27;;;30.63;;
17441;SDS011;8838;50.144;8.176;2023-02-15T06:48:57;669.70;;;39.87;;
17441;SDS011;8838;50.144;8.176;2023-02-15T06:51:25;446.23;;;35.37;;
17441;SDS011;8838;50.144;8.176;2023-02-15T06:53:52;430.57;;;34.17;;
17441;SDS011;8838;50.144;8.176;2023-02-15T06:56:19;491.53;;;34.40;;
17441;SDS011;8838;50.144;8.176;2023-02-15T06:58:45;509.17;;;34.63;;
17441;SDS011;8838;50.144;8.176;2023-02-15T07:01:14;469.83;;;34.50;;
17441;SDS011;8838;50.144;8.176;2023-02-15T07:03:41;370.90;;;32.70;;
17441;SDS011;8838;50.144;8.176;2023-02-15T07:06:08;620.67;;;37.00;;
17441;SDS011;8838;50.144;8.176;2023-02-15T07:08:37;451.33;;;33.70;;
17441;SDS011;8838;50.144;8.176;2023-02-15T07:11:05;464.83;;;33.67;;
17441;SDS011;8838;50.144;8.176;2023-02-15T07:13:50;596.63;;;36.67;;
17441;SDS011;8838;50.144;8.176;2023-02-15T07:16:17;613.20;;;36.30;;
17441;SDS011;8838;50.144;8.176;2023-02-15T07:18:44;688.40;;;38.87;;
17441;SDS011;8838;50.144;8.176;2023-02-15T07:21:11;475.03;;;37.50;;
17441;SDS011;8838;50.144;8.176;2023-02-15T07:23:39;435.63;;;33.40;;
17441;SDS011;8838;50.144;8.176;2023-02-15T07:26:06;441.67;;;34.00;;
17441;SDS011;8838;50.144;8.176;2023-02-15T07:28:33;707.50;;;41.83;;
17441;SDS011;8838;50.144;8.176;2023-02-15T07:31:00;542.87;;;34.97;;
17441;SDS011;8838;50.144;8.176;2023-02-15T07:33:28;418.63;;;32.47;;
17441;SDS011;8838;50.144;8.176;2023-02-15T07:35:57;418.70;;;31.97;;
17441;SDS011;8838;50.144;8.176;2023-02-15T07:38:26;428.00;;;31.20;;
17441;SDS011;8838;50.144;8.176;2023-02-15T07:40:58;343.70;;;28.60;;
17441;SDS011;8838;50.144;8.176;2023-02-15T07:43:25;1008.10;;;49.97;;
17441;SDS011;8838;50.144;8.176;2023-02-15T07:45:52;522.27;;;31.07;;
17441;SDS011;8838;50.144;8.176;2023-02-15T07:48:19;322.80;;;27.47;;
17441;SDS011;8838;50.144;8.176;2023-02-15T07:50:46;483.17;;;28.70;;
17441;SDS011;8838;50.144;8.176;2023-02-15T07:53:13;459.70;;;27.83;;
17441;SDS011;8838;50.144;8.176;2023-02-15T07:55:39;521.57;;;28.50;;
17441;SDS011;8838;50.144;8.176;2023-02-15T07:58:07;137.73;;;19.13;;
17441;SDS011;8838;50.144;8.176;2023-02-15T08:00:34;316.87;;;24.60;;
17441;SDS011;8838;50.144;8.176;2023-02-15T08:03:22;464.77;;;28.43;;
17441;SDS011;8838;50.144;8.176;2023-02-15T08:05:54;337.70;;;26.50;;
17441;SDS011;8838;50.144;8.176;2023-02-15T08:08:22;439.50;;;29.70;;
17441;SDS011;8838;50.144;8.176;2023-02-15T08:10:59;384.27;;;29.10;;
17441;SDS011;8838;50.144;8.176;2023-02-15T08:13:46;232.47;;;22.90;;
17441;SDS011;8838;50.144;8.176;2023-02-15T08:16:20;262.97;;;22.47;;
17441;SDS011;8838;50.144;8.176;2023-02-15T08:18:50;342.63;;;24.17;;
17441;SDS011;8838;50.144;8.176;2023-02-15T08:21:18;393.57;;;23.47;;
17441;SDS011;8838;50.144;8.176;2023-02-15T08:23:45;565.80;;;31.27;;
17441;SDS011;8838;50.144;8.176;2023-02-15T08:26:12;663.50;;;38.10;;
17441;SDS011;8838;50.144;8.176;2023-02-15T08:28:39;300.57;;;24.30;;
17441;SDS011;8838;50.144;8.176;2023-02-15T08:31:08;287.20;;;23.83;;
17441;SDS011;8838;50.144;8.176;2023-02-15T08:33:37;373.87;;;27.40;;
17441;SDS011;8838;50.144;8.176;2023-02-15T08:36:07;721.63;;;37.17;;
17441;SDS011;8838;50.144;8.176;2023-02-15T08:38:35;129.87;;;18.17;;
17441;SDS011;8838;50.144;8.176;2023-02-15T08:41:12;640.97;;;32.57;;
17441;SDS011;8838;50.144;8.176;2023-02-15T08:43:41;203.50;;;19.90;;
17441;SDS011;8838;50.144;8.176;2023-02-15T08:46:10;353.17;;;26.43;;
17441;SDS011;8838;50.144;8.176;2023-02-15T08:48:38;239.20;;;20.23;;
17441;SDS011;8838;50.144;8.176;2023-02-15T08:51:06;503.30;;;26.60;;
17441;SDS011;8838;50.144;8.176;2023-02-15T08:53:35;375.30;;;27.13;;
17441;SDS011;8838;50.144;8.176;2023-02-15T08:56:03;672.97;;;37.67;;
17441;SDS011;8838;50.144;8.176;2023-02-15T08:58:30;740.13;;;39.07;;
17441;SDS011;8838;50.144;8.176;2023-02-15T09:00:57;420.30;;;27.90;;
17441;SDS011;8838;50.144;8.176;2023-02-15T09:03:28;532.93;;;31.37;;
17441;SDS011;8838;50.144;8.176;2023-02-15T09:05:56;334.97;;;24.63;;
17441;SDS011;8838;50.144;8.176;2023-02-15T09:08:24;467.07;;;30.50;;
17441;SDS011;8838;50.144;8.176;2023-02-15T09:10:51;609.10;;;32.80;;
17441;SDS011;8838;50.144;8.176;2023-02-15T09:13:18;460.73;;;27.97;;
17441;SDS011;8838;50.144;8.176;2023-02-15T09:15:46;120.80;;;17.23;;
17441;SDS011;8838;50.144;8.176;2023-02-15T09:18:13;632.83;;;33.07;;
17441;SDS011;8838;50.144;8.176;2023-02-15T09:20:43;671.57;;;33.83;;
17441;SDS011;8838;50.144;8.176;2023-02-15T09:23:10;869.73;;;42.13;;
17441;SDS011;8838;50.144;8.176;2023-02-15T09:25:39;315.57;;;21.93;;
17441;SDS011;8838;50.144;8.176;2023-02-15T09:28:07;389.83;;;27.53;;
17441;SDS011;8838;50.144;8.176;2023-02-15T09:30:34;470.63;;;29.10;;
17441;SDS011;8838;50.144;8.176;2023-02-15T09:33:01;418.93;;;24.03;;
17441;SDS011;8838;50.144;8.176;2023-02-15T09:35:27;143.23;;;18.97;;
17441;SDS011;8838;50.144;8.176;2023-02-15T09:37:56;636.37;;;34.07;;
17441;SDS011;8838;50.144;8.176;2023-02-15T09:40:23;484.27;;;29.03;;
17441;SDS011;8838;50.144;8.176;2023-02-15T09:43:02;595.93;;;28.73;;
17441;SDS011;8838;50.144;8.176;2023-02-15T09:45:52;593.10;;;29.07;;
17441;SDS011;8838;50.144;8.176;2023-02-15T09:48:38;479.63;;;29.60;;
17441;SDS011;8838;50.144;8.176;2023-02-15T09:51:10;684.63;;;35.50;;
17441;SDS011;8838;50.144;8.176;2023-02-15T09:54:03;501.63;;;30.23;;
17441;SDS011;8838;50.144;8.176;2023-02-15T09:56:42;255.40;;;21.50;;
17441;SDS011;8838;50.144;8.176;2023-02-15T09:59:16;736.87;;;42.07;;
17441;SDS011;8838;50.144;8.176;2023-02-15T10:01:54;698.93;;;31.87;;
17441;SDS011;8838;50.144;8.176;2023-02-15T10:04:35;834.83;;;37.97;;
17441;SDS011;8838;50.144;8.176;2023-02-15T10:07:24;281.70;;;21.00;;
17441;SDS011;8838;50.144;8.176;2023-02-15T10:10:16;669.37;;;33.37;;
17441;SDS011;8838;50.144;8.176;2023-02-15T10:12:56;338.27;;;24.93;;
17441;SDS011;8838;50.144;8.176;2023-02-15T10:15:34;201.57;;;19.63;;
17441;SDS011;8838;50.144;8.176;2023-02-15T10:18:21;294.80;;;23.63;;
17441;SDS011;8838;50.144;8.176;2023-02-15T10:21:04;110.57;;;16.30;;
17441;SDS011;8838;50.144;8.176;2023-02-15T10:23:41;256.90;;;23.73;;
17441;SDS011;8838;50.144;8.176;2023-02-15T10:26:27;214.23;;;18.60;;
17441;SDS011;8838;50.144;8.176;2023-02-15T10:29:00;52.07;;;12.63;;
17441;SDS011;8838;50.144;8.176;2023-02-15T10:31:33;311.20;;;22.80;;
17441;SDS011;8838;50.144;8.176;2023-02-15T10:34:14;430.33;;;22.90;;
17441;SDS011;8838;50.144;8.176;2023-02-15T10:36:48;156.37;;;16.90;;
17441;SDS011;8838;50.144;8.176;2023-02-15T10:39:31;127.73;;;17.13;;
17441;SDS011;8838;50.144;8.176;2023-02-15T10:42:10;95.27;;;16.20;;
17441;SDS011;8838;50.144;8.176;2023-02-15T10:44:50;132.17;;;16.80;;
17441;SDS011;8838;50.144;8.176;2023-02-15T10:47:30;305.20;;;22.57;;
17441;SDS011;8838;50.144;8.176;2023-02-15T10:50:11;158.80;;;17.03;;
17441;SDS011;8838;50.144;8.176;2023-02-15T10:52:54;181.13;;;19.07;;
17441;SDS011;8838;50.144;8.176;2023-02-15T10:55:36;61.80;;;17.30;;
17441;SDS011;8838;50.144;8.176;2023-02-15T10:58:15;379.67;;;24.43;;
17441;SDS011;8838;50.144;8.176;2023-02-15T11:00:51;233.30;;;21.33;;
17441;SDS011;8838;50.144;8.176;2023-02-15T11:03:33;308.73;;;24.20;;
17441;SDS011;8838;50.144;8.176;2023-02-15T11:06:07;236.53;;;22.90;;
17441;SDS011;8838;50.144;8.176;2023-02-15T11:08:38;129.80;;;16.60;;
17441;SDS011;8838;50.144;8.176;2023-02-15T11:11:09;73.93;;;14.73;;
17441;SDS011;8838;50.144;8.176;2023-02-15T11:13:42;48.93;;;14.97;;
17441;SDS011;8838;50.144;8.176;2023-02-15T11:16:14;57.27;;;14.17;;
17441;SDS011;8838;50.144;8.176;2023-02-15T11:18:46;61.50;;;14.83;;
17441;SDS011;8838;50.144;8.176;2023-02-15T11:21:19;267.50;;;18.77;;
17441;SDS011;8838;50.144;8.176;2023-02-15T11:23:49;223.07;;;18.43;;
17441;SDS011;8838;50.144;8.176;2023-02-15T11:26:19;28.43;;;13.13;;
17441;SDS011;8838;50.144;8.176;2023-02-15T11:28:52;28.93;;;12.20;;
17441;SDS011;8838;50.144;8.176;2023-02-15T11:31:24;324.63;;;20.33;;
17441;SDS011;8838;50.144;8.176;2023-02-15T11:33:54;95.03;;;15.37;;
17441;SDS011;8838;50.144;8.176;2023-02-15T11:36:25;378.40;;;22.70;;
17441;SDS011;8838;50.144;8.176;2023-02-15T11:38:58;125.23;;;16.30;;
17441;SDS011;8838;50.144;8.176;2023-02-15T11:41:29;56.50;;;13.10;;
17441;SDS011;8838;50.144;8.176;2023-02-15T11:44:04;68.03;;;13.73;;
17441;SDS011;8838;50.144;8.176;2023-02-15T11:46:33;34.60;;;14.03;;
17441;SDS011;8838;50.144;8.176;2023-02-15T11:49:00;153.63;;;17.57;;
17441;SDS011;8838;50.144;8.176;2023-02-15T11:51:28;147.80;;;16.03;;
17441;SDS011;8838;50.144;8.176;2023-02-15T11:53:55;269.90;;;19.30;;
17441;SDS011;8838;50.144;8.176;2023-02-15T11:56:23;85.23;;;14.53;;
17441;SDS011;8838;50.144;8.176;2023-02-15T11:58:52;61.37;;;13.73;;
17441;SDS011;8838;50.144;8.176;2023-02-15T12:01:29;64.20;;;16.13;;
17441;SDS011;8838;50.144;8.176;2023-02-15T12:03:59;38.27;;;14.23;;
17441;SDS011;8838;50.144;8.176;2023-02-15T12:06:32;29.37;;;13.77;;
17441;SDS011;8838;50.144;8.176;2023-02-15T12:09:05;54.47;;;14.80;;
17441;SDS011;8838;50.144;8.176;2023-02-15T12:11:40;159.20;;;19.13;;
17441;SDS011;8838;50.144;8.176;2023-02-15T12:14:08;364.00;;;26.10;;
17441;SDS011;8838;50.144;8.176;2023-02-15T12:16:42;59.33;;;14.80;;
17441;SDS011;8838;50.144;8.176;2023-02-15T12:19:13;190.77;;;18.80;;
17441;SDS011;8838;50.144;8.176;2023-02-15T12:21:54;53.20;;;16.87;;
17441;SDS011;8838;50.144;8.176;2023-02-15T12:24:25;81.20;;;16.83;;
17441;SDS011;8838;50.144;8.176;2023-02-15T12:26:58;32.57;;;15.43;;
17441;SDS011;8838;50.144;8.176;2023-02-15T12:29:29;72.57;;;16.07;;
17441;SDS011;8838;50.144;8.176;2023-02-15T12:32:01;53.20;;;16.60;;
17441;SDS011;8838;50.144;8.176;2023-02-15T12:34:31;96.73;;;15.70;;
17441;SDS011;8838;50.144;8.176;2023-02-15T12:37:08;108.67;;;16.50;;
17441;SDS011;8838;50.144;8.176;2023-02-15T12:39:36;50.27;;;15.83;;
17441;SDS011;8838;50.144;8.176;2023-02-15T12:42:04;685.07;;;34.73;;
17441;SDS011;8838;50.144;8.176;2023-02-15T12:44:42;79.20;;;16.53;;
17441;SDS011;8838;50.144;8.176;2023-02-15T12:47:21;113.47;;;18.07;;
17441;SDS011;8838;50.144;8.176;2023-02-15T12:50:04;39.97;;;15.13;;
17441;SDS011;8838;50.144;8.176;2023-02-15T12:52:51;84.47;;;17.80;;
17441;SDS011;8838;50.144;8.176;2023-02-15T12:55:31;378.50;;;26.00;;
17441;SDS011;8838;50.144;8.176;2023-02-15T12:58:05;65.40;;;17.83;;
17441;SDS011;8838;50.144;8.176;2023-02-15T13:00:33;39.40;;;16.07;;
17441;SDS011;8838;50.144;8.176;2023-02-15T13:03:01;79.03;;;18.73;;
17441;SDS011;8838;50.144;8.176;2023-02-15T13:05:30;60.33;;;16.80;;
17441;SDS011;8838;50.144;8.176;2023-02-15T13:08:00;100.07;;;18.73;;
17441;SDS011;8838;50.144;8.176;2023-02-15T13:10:30;69.00;;;17.83;;
17441;SDS011;8838;50.144;8.176;2023-02-15T13:12:59;102.50;;;19.47;;
17441;SDS011;8838;50.144;8.176;2023-02-15T13:15:32;47.60;;;17.23;;
17441;SDS011;8838;50.144;8.176;2023-02-15T13:18:04;65.00;;;18.00;;
17441;SDS011;8838;50.144;8.176;2023-02-15T13:20:36;31.93;;;17.73;;
17441;SDS011;8838;50.144;8.176;2023-02-15T13:23:06;101.20;;;18.83;;
17441;SDS011;8838;50.144;8.176;2023-02-15T13:25:46;406.80;;;29.47;;
17441;SDS011;8838;50.144;8.176;2023-02-15T13:28:16;461.47;;;29.83;;
17441;SDS011;8838;50.144;8.176;2023-02-15T13:30:45;93.93;;;19.50;;
17441;SDS011;8838;50.144;8.176;2023-02-15T13:33:16;241.67;;;22.90;;
17441;SDS011;8838;50.144;8.176;2023-02-15T13:35:46;190.60;;;24.00;;
17441;SDS011;8838;50.144;8.176;2023-02-15T13:38:27;112.20;;;20.67;;
17441;SDS011;8838;50.144;8.176;2023-02-15T13:41:11;42.23;;;18.97;;
17441;SDS011;8838;50.144;8.176;2023-02-15T13:43:43;35.97;;;18.87;;
17441;SDS011;8838;50.144;8.176;2023-02-15T13:46:24;33.33;;;18.20;;
17441;SDS011;8838;50.144;8.176;2023-02-15T13:49:09;34.03;;;17.07;;
17441;SDS011;8838;50.144;8.176;2023-02-15T13:51:43;173.33;;;22.90;;
17441;SDS011;8838;50.144;8.176;2023-02-15T13:54:21;90.17;;;18.83;;
17441;SDS011;8838;50.144;8.176;2023-02-15T14:00:10;511.83;;;31.90;;
17441;SDS011;8838;50.144;8.176;2023-02-15T14:02:52;56.90;;;20.60;;
17441;SDS011;8838;50.144;8.176;2023-02-15T14:05:51;268.17;;;25.03;;
17441;SDS011;8838;50.144;8.176;2023-02-15T14:08:32;50.07;;;19.10;;
17441;SDS011;8838;50.144;8.176;2023-02-15T14:11:11;193.73;;;24.73;;
17441;SDS011;8838;50.144;8.176;2023-02-15T14:16:45;46.33;;;19.53;;
17441;SDS011;8838;50.144;8.176;2023-02-15T14:19:21;47.30;;;19.07;;
17441;SDS011;8838;50.144;8.176;2023-02-15T14:21:57;73.13;;;21.17;;
17441;SDS011;8838;50.144;8.176;2023-02-15T14:24:30;129.70;;;24.73;;
17441;SDS011;8838;50.144;8.176;2023-02-15T14:27:05;41.27;;;20.70;;
17441;SDS011;8838;50.144;8.176;2023-02-15T14:29:49;92.20;;;22.20;;
17441;SDS011;8838;50.144;8.176;2023-02-15T14:32:21;49.67;;;20.33;;
17441;SDS011;8838;50.144;8.176;2023-02-15T14:34:54;155.40;;;23.30;;
17441;SDS011;8838;50.144;8.176;2023-02-15T14:37:27;38.63;;;20.27;;
17441;SDS011;8838;50.144;8.176;2023-02-15T14:40:03;43.27;;;20.67;;
17441;SDS011;8838;50.144;8.176;2023-02-15T14:42:55;394.33;;;29.77;;
17441;SDS011;8838;50.144;8.176;2023-02-15T14:45:28;38.00;;;20.90;;
17441;SDS011;8838;50.144;8.176;2023-02-15T14:48:00;91.50;;;22.83;;
17441;SDS011;8838;50.144;8.176;2023-02-15T14:50:44;76.47;;;21.83;;
17441;SDS011;8838;50.144;8.176;2023-02-15T14:53:24;251.33;;;25.73;;
17441;SDS011;8838;50.144;8.176;2023-02-15T14:56:16;52.10;;;21.97;;